createdAt,value
2023-02-11T00:01:10.779Z,102646.28
2023-02-11T00:03:37.979Z,102646.31
2023-02-11T00:06:07.899Z,102643.06
2023-02-11T00:08:34.961Z,102647.16
2023-02-11T00:11:01.575Z,102650.59
2023-02-11T00:13:28.136Z,102644.84
2023-02-11T00:15:55.558Z,102646.28
2023-02-11T00:18:22.822Z,102641.38
2023-02-11T00:20:49.365Z,102654.19
2023-02-11T00:23:16.216Z,102645.88
2023-02-11T00:25:44.883Z,102639.38
2023-02-11T00:28:12.320Z,102642.41
2023-02-11T00:30:39.032Z,102647.50
2023-02-11T00:33:07.663Z,102647.13
2023-02-11T00:35:37.445Z,102643.16
2023-02-11T00:38:04.215Z,102637.56
2023-02-11T00:40:33.606Z,102640.53
2023-02-11T00:43:00.333Z,102643.91
2023-02-11T00:45:28.037Z,102633.69
2023-02-11T00:47:54.778Z,102622.16
2023-02-11T00:50:21.387Z,102628.50
2023-02-11T00:52:48.093Z,102614.94
2023-02-11T00:55:15.240Z,102618.81
2023-02-11T00:57:41.943Z,102623.47
2023-02-11T01:00:10.091Z,102621.47
2023-02-11T01:02:36.791Z,102614.94
2023-02-11T01:05:04.103Z,102618.28
2023-02-11T01:07:30.780Z,102606.59
2023-02-11T01:09:57.472Z,102610.44
2023-02-11T01:12:24.387Z,102611.22
2023-02-11T01:14:51.003Z,102612.34
2023-02-11T01:17:17.701Z,102606.91
2023-02-11T01:19:44.286Z,102607.97
2023-02-11T01:22:10.865Z,102600.63
2023-02-11T01:24:37.677Z,102600.13
2023-02-11T01:27:04.467Z,102588.19
2023-02-11T01:29:31.179Z,102603.03
2023-02-11T01:31:57.773Z,102594.47
2023-02-11T01:34:24.385Z,102590.59
2023-02-11T01:36:51.100Z,102594.00
2023-02-11T01:39:17.797Z,102595.31
2023-02-11T01:41:44.384Z,102587.34
2023-02-11T01:44:33.844Z,102585.34
2023-02-11T01:47:01.464Z,102577.66
2023-02-11T01:49:38.478Z,102573.38
2023-02-11T01:52:29.976Z,102577.97
2023-02-11T01:55:19.190Z,102577.44
2023-02-11T01:57:51.742Z,102581.69
2023-02-11T02:00:23.521Z,102577.25
2023-02-11T02:03:02.049Z,102573.66
2023-02-11T02:05:45.258Z,102567.09
2023-02-11T02:08:15.337Z,102561.09
2023-02-11T02:10:45.057Z,102557.03
2023-02-11T02:13:13.213Z,102550.91
2023-02-11T02:15:45.918Z,102551.19
2023-02-11T02:18:50.179Z,102546.19
2023-02-11T02:21:47.355Z,102547.47
2023-02-11T02:24:19.913Z,102553.50
2023-02-11T02:27:14.437Z,102544.69
2023-02-11T02:29:56.182Z,102528.97
2023-02-11T02:33:16.742Z,102535.38
2023-02-11T02:36:01.982Z,102535.97
2023-02-11T02:38:39.773Z,102537.66
2023-02-11T02:41:16.076Z,102552.44
2023-02-11T02:43:46.119Z,102542.94
2023-02-11T02:46:27.301Z,102543.75
2023-02-11T02:48:55.699Z,102548.91
2023-02-11T02:51:43.421Z,102546.19
2023-02-11T02:54:40.548Z,102547.34
2023-02-11T02:57:18.443Z,102539.69
2023-02-11T02:59:44.954Z,102530.88
2023-02-11T03:02:25.186Z,102540.00
2023-02-11T03:05:18.933Z,102530.88
2023-02-11T03:08:12.251Z,102518.72
2023-02-11T03:10:43.988Z,102518.47
2023-02-11T03:13:11.140Z,102522.19
2023-02-11T03:15:51.228Z,102516.31
2023-02-11T03:18:22.405Z,102506.72
2023-02-11T03:20:51.989Z,102515.38
2023-02-11T03:23:39.895Z,102506.94
2023-02-11T03:26:16.954Z,102506.56
2023-02-11T03:29:01.322Z,102498.72
2023-02-11T03:31:38.460Z,102516.22
2023-02-11T03:34:36.543Z,102515.78
2023-02-11T03:37:13.075Z,102515.78
2023-02-11T03:39:46.384Z,102511.50
2023-02-11T03:42:14.776Z,102508.91
2023-02-11T03:44:48.804Z,102510.81
2023-02-11T03:47:20.230Z,102512.97
2023-02-11T03:49:49.881Z,102504.63
2023-02-11T03:52:20.015Z,102512.75
2023-02-11T03:54:51.228Z,102497.88
2023-02-11T03:57:17.779Z,102503.16
2023-02-11T03:59:56.500Z,102501.97
2023-02-11T04:02:31.029Z,102495.25
2023-02-11T04:04:57.729Z,102485.16
2023-02-11T04:07:24.619Z,102486.47
2023-02-11T04:09:51.690Z,102479.66
2023-02-11T04:12:18.413Z,102485.38
2023-02-11T04:14:44.960Z,102490.78
2023-02-11T04:17:12.088Z,102484.13
2023-02-11T04:19:38.964Z,102468.63
2023-02-11T04:22:05.979Z,102466.38
2023-02-11T04:24:32.684Z,102448.75
2023-02-11T04:26:59.628Z,102456.16
2023-02-11T04:29:26.598Z,102443.94
2023-02-11T04:31:53.326Z,102447.97
2023-02-11T04:34:19.902Z,102438.66
2023-02-11T04:36:46.793Z,102436.25
2023-02-11T04:39:13.402Z,102439.91
2023-02-11T04:41:39.947Z,102434.97
2023-02-11T04:44:06.647Z,102438.97
2023-02-11T04:46:33.197Z,102440.88
2023-02-11T04:48:59.747Z,102422.66
2023-02-11T04:51:26.303Z,102418.72
2023-02-11T04:53:52.930Z,102423.81
2023-02-11T04:56:19.574Z,102420.22
2023-02-11T04:58:46.289Z,102413.84
2023-02-11T05:01:15.290Z,102413.69
2023-02-11T05:03:42.928Z,102406.38
2023-02-11T05:06:10.507Z,102417.44
2023-02-11T05:08:40.141Z,102412.34
2023-02-11T05:11:15.394Z,102407.94
2023-02-11T05:13:42.031Z,102421.28
2023-02-11T05:16:09.247Z,102409.84
2023-02-11T05:18:38.279Z,102413.25
2023-02-11T05:21:15.838Z,102414.56
2023-02-11T05:23:45.830Z,102417.53
2023-02-11T05:26:14.641Z,102429.16
2023-02-11T05:28:44.946Z,102423.47
2023-02-11T05:31:12.576Z,102436.78
2023-02-11T05:36:20.014Z,102448.72
2023-02-11T05:38:46.729Z,102457.38
2023-02-11T05:41:13.562Z,102460.31
2023-02-11T05:43:40.181Z,102471.63
2023-02-11T05:46:06.786Z,102460.91
2023-02-11T05:48:33.958Z,102464.34
2023-02-11T05:51:00.603Z,102466.84
2023-02-11T05:53:27.247Z,102456.56
2023-02-11T05:55:53.997Z,102456.91
2023-02-11T05:58:20.655Z,102458.13
2023-02-11T06:00:47.256Z,102465.13
2023-02-11T06:03:13.910Z,102472.66
2023-02-11T06:05:42.287Z,102464.94
2023-02-11T06:08:08.853Z,102463.31
2023-02-11T06:10:35.476Z,102458.47
2023-02-11T06:13:02.242Z,102464.81
2023-02-11T06:15:28.974Z,102449.16
2023-02-11T06:17:55.838Z,102457.63
2023-02-11T06:20:25.328Z,102446.78
2023-02-11T06:22:51.908Z,102449.56
2023-02-11T06:25:18.628Z,102445.47
2023-02-11T06:27:45.316Z,102452.34
2023-02-11T06:30:13.695Z,102452.66
2023-02-11T06:32:44.448Z,102445.97
2023-02-11T06:35:12.695Z,102446.03
2023-02-11T06:37:40.490Z,102444.34
2023-02-11T06:40:07.451Z,102453.66
2023-02-11T06:42:37.019Z,102450.69
2023-02-11T06:45:05.748Z,102436.81
2023-02-11T06:47:33.692Z,102436.34
2023-02-11T06:50:00.569Z,102435.19
2023-02-11T06:52:27.155Z,102421.94
2023-02-11T06:54:53.723Z,102431.53
2023-02-11T06:57:20.366Z,102418.72
2023-02-11T06:59:46.936Z,102419.91
2023-02-11T07:02:13.554Z,102421.72
2023-02-11T07:04:40.208Z,102414.47
2023-02-11T07:07:06.893Z,102408.81
2023-02-11T07:09:33.547Z,102407.94
2023-02-11T07:12:03.429Z,102394.81
2023-02-11T07:14:33.441Z,102399.72
2023-02-11T07:17:06.128Z,102394.81
2023-02-11T07:19:35.426Z,102377.78
2023-02-11T07:22:02.050Z,102382.59
2023-02-11T07:24:28.614Z,102373.47
2023-02-11T07:26:55.180Z,102369.13
2023-02-11T07:29:21.795Z,102375.91
2023-02-11T07:31:48.451Z,102376.56
2023-02-11T07:34:15.185Z,102384.91
2023-02-11T07:36:41.986Z,102387.03
2023-02-11T07:39:08.556Z,102389.25
2023-02-11T07:41:37.713Z,102390.03
2023-02-11T07:44:04.892Z,102389.84
2023-02-11T07:46:31.580Z,102369.03
2023-02-11T07:48:58.476Z,102366.13
2023-02-11T07:51:30.536Z,102383.91
2023-02-11T07:53:59.013Z,102383.34
2023-02-11T07:56:26.249Z,102375.09
2023-02-11T07:58:52.829Z,102364.66
2023-02-11T08:01:22.746Z,102380.16
2023-02-11T08:03:49.655Z,102381.34
2023-02-11T08:06:18.435Z,102380.16
2023-02-11T08:08:44.989Z,102378.59
2023-02-11T08:11:15.180Z,102382.47
2023-02-11T08:13:42.548Z,102377.38
2023-02-11T08:16:10.031Z,102386.53
2023-02-11T08:18:36.908Z,102385.31
2023-02-11T08:21:05.938Z,102386.31
2023-02-11T08:23:32.704Z,102391.41
2023-02-11T08:26:07.467Z,102391.19
2023-02-11T08:28:41.375Z,102395.25
2023-02-11T08:31:10.767Z,102402.97
2023-02-11T08:33:37.548Z,102397.44
2023-02-11T08:36:24.691Z,102402.34
2023-02-11T08:38:52.364Z,102407.13
2023-02-11T08:41:18.924Z,102407.00
2023-02-11T08:43:46.063Z,102408.16
2023-02-11T08:46:15.790Z,102390.13
2023-02-11T08:48:42.971Z,102394.81
2023-02-11T08:51:14.388Z,102401.63
2023-02-11T08:53:40.977Z,102394.50
2023-02-11T08:56:08.682Z,102383.53
2023-02-11T08:58:35.208Z,102392.16
2023-02-11T09:01:01.905Z,102388.09
2023-02-11T09:03:28.564Z,102388.16
2023-02-11T09:05:55.195Z,102386.44
2023-02-11T09:08:21.741Z,102386.88
2023-02-11T09:10:48.907Z,102383.69
2023-02-11T09:13:15.774Z,102383.22
2023-02-11T09:15:45.953Z,102391.56
2023-02-11T09:18:13.760Z,102389.34
2023-02-11T09:20:40.462Z,102386.97
2023-02-11T09:23:07.045Z,102380.84
2023-02-11T09:25:33.791Z,102375.59
2023-02-11T09:28:00.837Z,102375.81
2023-02-11T09:30:27.507Z,102367.63
2023-02-11T09:32:54.279Z,102371.22
2023-02-11T09:35:20.875Z,102364.88
2023-02-11T09:37:47.652Z,102356.16
2023-02-11T09:40:15.696Z,102352.94
2023-02-11T09:43:04.247Z,102356.56
2023-02-11T09:45:32.162Z,102349.16
2023-02-11T09:48:13.211Z,102342.56
2023-02-11T09:50:43.384Z,102338.97
2023-02-11T09:53:42.274Z,102338.34
2023-02-11T09:56:14.381Z,102343.38
2023-02-11T09:58:44.589Z,102343.63
2023-02-11T10:01:21.086Z,102337.88
2023-02-11T10:04:12.725Z,102325.66
2023-02-11T10:06:46.973Z,102323.44
2023-02-11T10:09:32.999Z,102314.00
2023-02-11T10:12:42.068Z,102308.09
2023-02-11T10:15:21.555Z,102316.25
2023-02-11T10:18:25.595Z,102311.44
2023-02-11T10:21:12.524Z,102306.72
2023-02-11T10:23:42.830Z,102312.13
2023-02-11T10:26:14.761Z,102293.06
2023-02-11T10:28:45.097Z,102297.13
2023-02-11T10:31:39.862Z,102295.00
2023-02-11T10:34:10.432Z,102300.09
2023-02-11T10:36:43.114Z,102296.06
2023-02-11T10:39:21.414Z,102284.72
2023-02-11T10:41:54.527Z,102278.13
2023-02-11T10:44:26.292Z,102278.94
2023-02-11T10:46:54.483Z,102276.47
2023-02-11T10:49:42.365Z,102272.69
2023-02-11T10:52:19.238Z,102274.38
2023-02-11T10:55:02.223Z,102268.03
2023-02-11T10:57:36.518Z,102255.81
2023-02-11T11:00:23.148Z,102257.44
2023-02-11T11:02:56.453Z,102252.72
2023-02-11T11:05:35.610Z,102254.09
2023-02-11T11:08:05.898Z,102247.03
2023-02-11T11:10:41.605Z,102234.28
2023-02-11T11:13:23.667Z,102224.88
2023-02-11T11:16:12.462Z,102222.44
2023-02-11T11:18:40.849Z,102217.38
2023-02-11T11:21:36.544Z,102221.09
2023-02-11T11:24:04.782Z,102221.25
2023-02-11T11:26:43.901Z,102226.81
2023-02-11T11:29:16.626Z,102223.16
2023-02-11T11:31:56.672Z,102206.59
2023-02-11T11:34:53.508Z,102202.19
2023-02-11T11:37:22.893Z,102203.59
2023-02-11T11:40:21.284Z,102196.47
2023-02-11T11:43:02.791Z,102197.25
2023-02-11T11:45:29.633Z,102178.63
2023-02-11T11:48:00.524Z,102169.38
2023-02-11T11:50:37.024Z,102161.63
2023-02-11T11:53:40.743Z,102152.97
2023-02-11T11:56:14.424Z,102150.06
2023-02-11T11:58:41.487Z,102145.28
2023-02-11T12:01:34.482Z,102139.13
2023-02-11T12:04:27.468Z,102145.69
2023-02-11T12:07:11.688Z,102134.44
2023-02-11T12:09:48.736Z,102142.16
2023-02-11T12:12:46.971Z,102128.88
2023-02-11T12:15:50.524Z,102135.41
2023-02-11T12:18:36.500Z,102135.00
2023-02-11T12:21:59.887Z,102117.81
2023-02-11T12:24:29.424Z,102119.53
2023-02-11T12:27:08.324Z,102110.16
2023-02-11T12:29:46.175Z,102105.41
2023-02-11T12:32:17.288Z,102104.19
2023-02-11T12:34:55.854Z,102106.94
2023-02-11T12:37:59.903Z,102102.94
2023-02-11T12:40:44.143Z,102091.22
2023-02-11T12:43:46.442Z,102089.91
2023-02-11T12:46:34.736Z,102081.34
2023-02-11T12:49:26.810Z,102079.16
2023-02-11T12:51:58.997Z,102075.59
2023-02-11T12:54:54.474Z,102072.88
2023-02-11T12:57:31.402Z,102076.69
2023-02-11T13:00:19.087Z,102059.00
2023-02-11T13:03:06.775Z,102057.28
2023-02-11T13:05:46.088Z,102043.81
2023-02-11T13:08:28.111Z,102042.06
2023-02-11T13:11:02.551Z,102035.13
2023-02-11T13:13:39.050Z,102021.16
2023-02-11T13:16:14.989Z,102005.81
2023-02-11T13:19:03.268Z,102006.28
2023-02-11T13:21:54.437Z,101995.09
2023-02-11T13:24:58.153Z,102002.44
2023-02-11T13:27:42.692Z,101989.66
2023-02-11T13:30:30.574Z,101985.28
2023-02-11T13:32:57.091Z,101984.47
2023-02-11T13:35:31.579Z,101987.81
2023-02-11T13:38:00.319Z,101997.47
2023-02-11T13:40:39.551Z,101985.22
2023-02-11T13:43:25.659Z,101993.19
2023-02-11T13:45:57.691Z,101987.88
2023-02-11T13:48:35.085Z,101994.41
2023-02-11T13:51:15.307Z,101995.66
2023-02-11T13:53:48.750Z,102004.50
2023-02-11T13:56:38.613Z,102012.31
2023-02-11T13:59:28.246Z,102009.97
2023-02-11T14:02:00.544Z,102000.25
2023-02-11T14:04:30.036Z,101992.09
2023-02-11T14:07:34.032Z,101977.94
2023-02-11T14:10:00.736Z,101972.44
2023-02-11T14:12:33.974Z,101959.81
2023-02-11T14:15:17.893Z,101969.97
2023-02-11T14:17:44.642Z,101963.66
2023-02-11T14:20:39.417Z,101956.25
2023-02-11T14:23:24.520Z,101954.38
2023-02-11T14:26:10.300Z,101959.19
2023-02-11T14:28:40.025Z,101950.94
2023-02-11T14:31:18.668Z,101940.41
2023-02-11T14:34:12.592Z,101950.16
2023-02-11T14:36:44.968Z,101962.19
2023-02-11T14:39:30.018Z,101953.34
2023-02-11T14:41:56.888Z,101950.19
2023-02-11T14:44:27.804Z,101955.06
2023-02-11T14:46:55.528Z,101958.47
2023-02-11T14:49:29.607Z,101946.88
2023-02-11T14:52:19.406Z,101935.09
2023-02-11T14:54:49.330Z,101931.09
2023-02-11T14:57:20.341Z,101938.88
2023-02-11T15:00:01.540Z,101938.72
2023-02-11T15:02:32.925Z,101933.06
2023-02-11T15:05:26.136Z,101939.59
2023-02-11T15:08:01.750Z,101949.47
2023-02-11T15:10:44.162Z,101944.16
2023-02-11T15:13:23.500Z,101949.44
2023-02-11T15:15:55.570Z,101943.97
2023-02-11T15:18:25.933Z,101941.81
2023-02-11T15:20:53.020Z,101938.88
2023-02-11T15:23:24.944Z,101948.50
2023-02-11T15:25:51.476Z,101940.69
2023-02-11T15:28:29.848Z,101949.94
2023-02-11T15:31:04.971Z,101958.16
2023-02-11T15:33:32.752Z,101942.09
2023-02-11T15:36:01.884Z,101942.94
2023-02-11T15:38:29.105Z,101940.66
2023-02-11T15:41:01.294Z,101932.44
2023-02-11T15:43:46.762Z,101923.63
2023-02-11T15:46:23.152Z,101914.56
2023-02-11T15:48:53.087Z,101906.41
2023-02-11T15:51:24.397Z,101890.84
2023-02-11T15:54:03.832Z,101896.34
2023-02-11T15:56:41.739Z,101890.47
2023-02-11T15:59:18.906Z,101890.91
2023-02-11T16:01:47.277Z,101906.53
2023-02-11T16:04:22.658Z,101902.06
2023-02-11T16:06:50.396Z,101898.75
2023-02-11T16:09:17.018Z,101908.63
2023-02-11T16:11:46.763Z,101899.34
2023-02-11T16:14:23.557Z,101906.53
2023-02-11T16:16:53.174Z,101905.06
2023-02-11T16:19:25.301Z,101898.09
2023-02-11T16:21:54.104Z,101892.63
2023-02-11T16:24:30.533Z,101877.66
2023-02-11T16:27:18.140Z,101872.47
2023-02-11T16:29:47.412Z,101880.03
2023-02-11T16:32:18.028Z,101874.59
2023-02-11T16:34:45.260Z,101874.63
2023-02-11T16:37:12.259Z,101886.91
2023-02-11T16:39:38.852Z,101881.84
2023-02-11T16:42:07.416Z,101876.38
2023-02-11T16:44:34.779Z,101880.81
2023-02-11T16:47:02.845Z,101878.91
2023-02-11T16:49:41.657Z,101886.31
2023-02-11T16:52:13.345Z,101880.41
2023-02-11T16:54:39.978Z,101888.41
2023-02-11T16:57:30.540Z,101885.03
2023-02-11T16:59:57.227Z,101887.81
2023-02-11T17:02:30.166Z,101872.03
2023-02-11T17:05:00.692Z,101879.22
2023-02-11T17:07:28.442Z,101878.16
2023-02-11T17:09:55.864Z,101874.78
2023-02-11T17:12:22.832Z,101876.47
2023-02-11T17:14:49.391Z,101867.63
2023-02-11T17:17:16.065Z,101871.00
2023-02-11T17:19:42.741Z,101878.19
2023-02-11T17:22:11.446Z,101875.84
2023-02-11T17:24:38.062Z,101871.66
2023-02-11T17:27:04.833Z,101865.31
2023-02-11T17:29:31.459Z,101866.00
2023-02-11T17:31:58.242Z,101885.56
2023-02-11T17:34:24.892Z,101886.19
2023-02-11T17:36:51.528Z,101895.44
2023-02-11T17:39:18.113Z,101891.66
2023-02-11T17:41:44.702Z,101900.53
2023-02-11T17:44:11.741Z,101887.25
2023-02-11T17:46:38.349Z,101892.50
2023-02-11T17:49:04.975Z,101905.97
2023-02-11T17:51:31.472Z,101914.00
2023-02-11T17:54:00.047Z,101902.19
2023-02-11T17:56:26.847Z,101894.41
2023-02-11T17:58:53.676Z,101886.00
2023-02-11T18:01:20.555Z,101877.38
2023-02-11T18:03:47.208Z,101861.38
2023-02-11T18:06:13.838Z,101848.53
2023-02-11T18:08:40.442Z,101850.00
2023-02-11T18:11:09.945Z,101839.47
2023-02-11T18:13:36.553Z,101844.53
2023-02-11T18:16:07.064Z,101856.97
2023-02-11T18:18:33.921Z,101846.44
2023-02-11T18:21:02.133Z,101835.09
2023-02-11T18:23:28.715Z,101833.41
2023-02-11T18:25:55.389Z,101833.38
2023-02-11T18:28:22.457Z,101836.75
2023-02-11T18:30:49.057Z,101845.84
2023-02-11T18:33:16.718Z,101841.16
2023-02-11T18:35:43.925Z,101834.47
2023-02-11T18:38:10.480Z,101833.63
2023-02-11T18:40:40.576Z,101840.38
2023-02-11T18:43:07.433Z,101859.72
2023-02-11T18:45:34.300Z,101866.03
2023-02-11T18:48:00.887Z,101853.41
2023-02-11T18:50:27.492Z,101834.69
2023-02-11T18:52:54.092Z,101828.81
2023-02-11T18:55:23.478Z,101828.16
2023-02-11T18:57:50.211Z,101839.50
2023-02-11T19:00:17.177Z,101838.69
2023-02-11T19:02:43.843Z,101828.16
2023-02-11T19:05:10.542Z,101820.59
2023-02-11T19:07:37.372Z,101818.91
2023-02-11T19:10:05.332Z,101817.66
2023-02-11T19:12:31.992Z,101819.56
2023-02-11T19:14:59.084Z,101826.06
2023-02-11T19:17:25.891Z,101839.31
2023-02-11T19:19:53.019Z,101838.69
2023-02-11T19:22:19.607Z,101831.97
2023-02-11T19:24:46.409Z,101827.31
2023-02-11T19:27:13.201Z,101837.44
2023-02-11T19:29:39.964Z,101830.06
2023-02-11T19:32:06.825Z,101837.22
2023-02-11T19:34:34.199Z,101839.50
2023-02-11T19:37:00.840Z,101830.28
2023-02-11T19:39:27.717Z,101807.75
2023-02-11T19:41:54.334Z,101798.09
2023-02-11T19:44:20.939Z,101796.38
2023-02-11T19:46:47.498Z,101814.28
2023-02-11T19:49:16.482Z,101816.81
2023-02-11T19:51:43.629Z,101815.09
2023-02-11T19:54:10.559Z,101800.81
2023-02-11T19:56:37.173Z,101805.88
2023-02-11T19:59:04.398Z,101815.53
2023-02-11T20:01:31.337Z,101815.97
2023-02-11T20:03:57.944Z,101820.16
2023-02-11T20:06:27.641Z,101820.78
2023-02-11T20:08:59.692Z,101797.88
2023-02-11T20:11:28.500Z,101795.53
2023-02-11T20:13:55.574Z,101786.50
2023-02-11T20:16:26.940Z,101789.03
2023-02-11T20:19:01.153Z,101800.00
2023-02-11T20:21:30.498Z,101811.34
2023-02-11T20:23:57.472Z,101820.59
2023-02-11T20:26:27.648Z,101823.97
2023-02-11T20:28:55.778Z,101813.22
2023-02-11T20:31:23.873Z,101815.53
2023-02-11T20:33:51.083Z,101813.41
2023-02-11T20:36:20.649Z,101809.00
2023-02-11T20:38:48.367Z,101802.69
2023-02-11T20:41:36.056Z,101815.09
2023-02-11T20:44:06.192Z,101816.19
2023-02-11T20:46:34.439Z,101810.06
2023-02-11T20:49:02.105Z,101802.28
2023-02-11T20:51:31.572Z,101798.31
2023-02-11T20:53:59.084Z,101786.09
2023-02-11T20:56:29.244Z,101785.88
2023-02-11T20:58:58.369Z,101788.00
2023-02-11T21:01:28.508Z,101792.41
2023-02-11T21:04:00.374Z,101793.88
2023-02-11T21:06:35.227Z,101790.09
2023-02-11T21:09:03.761Z,101783.78
2023-02-11T21:11:30.388Z,101781.03
2023-02-11T21:13:57.696Z,101784.19
2023-02-11T21:16:24.899Z,101788.19
2023-02-11T21:18:52.311Z,101782.31
2023-02-11T21:21:20.038Z,101768.84
2023-02-11T21:23:47.435Z,101768.84
2023-02-11T21:26:15.832Z,101769.25
2023-02-11T21:28:42.930Z,101760.88
2023-02-11T21:31:17.642Z,101752.03
2023-02-11T21:33:44.266Z,101755.19
2023-02-11T21:36:10.848Z,101757.50
2023-02-11T21:38:37.478Z,101760.22
2023-02-11T21:41:04.895Z,101773.69
2023-02-11T21:43:31.771Z,101766.34
2023-02-11T21:45:58.464Z,101775.59
2023-02-11T21:48:25.432Z,101764.44
2023-02-11T21:50:53.058Z,101772.25
2023-02-11T21:53:19.881Z,101775.59
2023-02-11T21:55:46.529Z,101776.81
2023-02-11T21:58:13.466Z,101787.97
2023-02-11T22:00:40.383Z,101779.38
2023-02-11T22:03:06.973Z,101781.47
2023-02-11T22:05:33.564Z,101781.88
2023-02-11T22:08:00.117Z,101790.91
2023-02-11T22:10:26.753Z,101794.09
2023-02-11T22:12:53.340Z,101799.34
2023-02-11T22:15:20.017Z,101800.19
2023-02-11T22:17:46.658Z,101798.09
2023-02-11T22:20:13.316Z,101798.09
2023-02-11T22:22:39.909Z,101795.59
2023-02-11T22:25:06.995Z,101786.34
2023-02-11T22:27:33.689Z,101775.63
2023-02-11T22:30:00.362Z,101773.94
2023-02-11T22:32:27.080Z,101776.06
2023-02-11T22:34:53.728Z,101785.94
2023-02-11T22:37:20.779Z,101797.50
2023-02-11T22:39:47.519Z,101800.44
2023-02-11T22:42:14.197Z,101807.59
2023-02-11T22:44:40.749Z,101807.59
2023-02-11T22:47:07.355Z,101813.47
2023-02-11T22:49:35.021Z,101803.19
2023-02-11T22:52:01.735Z,101804.88
2023-02-11T22:54:28.474Z,101794.34
2023-02-11T22:56:55.138Z,101794.13
2023-02-11T22:59:22.144Z,101794.13
2023-02-11T23:01:48.871Z,101801.91
2023-02-11T23:04:17.207Z,101801.72
2023-02-11T23:06:43.983Z,101806.97
2023-02-11T23:09:11.392Z,101802.34
2023-02-11T23:11:38.331Z,101806.75
2023-02-11T23:14:04.965Z,101807.59
2023-02-11T23:16:33.785Z,101803.41
2023-02-11T23:19:02.723Z,101793.91
2023-02-11T23:21:31.976Z,101783.59
2023-02-11T23:24:02.215Z,101790.97
2023-02-11T23:26:29.086Z,101789.72
2023-02-11T23:28:57.177Z,101787.41
2023-02-11T23:31:33.090Z,101784.25
2023-02-11T23:34:00.453Z,101776.06
2023-02-11T23:36:27.506Z,101779.00
2023-02-11T23:38:54.194Z,101772.69
2023-02-11T23:41:21.454Z,101778.56
2023-02-11T23:43:52.900Z,101782.75
2023-02-11T23:46:21.060Z,101786.56
2023-02-11T23:48:48.413Z,101792.03
2023-02-11T23:51:15.492Z,101795.38
2023-02-11T23:53:42.080Z,101777.06
2023-02-11T23:56:11.072Z,101781.69
2023-02-11T23:58:37.657Z,101781.09
